Time;durP1;ratioP1;P1;durP2;ratioP2;P2;SDS_P1;SDS_P2;PMS_P1;PMS_P2;Temp;Humidity;BMP_temperature;BMP_pressure;BME280_temperature;BME280_humidity;BME280_pressure;Samples;Min_cycle;Max_cycle;Signal;HPM_P1;HPM_P2
2024/01/09 00:00:33;;;;;;;;;;;;;;;;;;5064870;28;19928;-72
2024/01/09 00:02:59;;;;;;;;;;;;;;;;;;5079987;28;19928;-72
2024/01/09 00:05:24;;;;;;;;;;;;;;;;;;5069377;28;19928;-72
2024/01/09 00:07:50;;;;;;;;;;;;;;;;;;5079289;28;20385;-72
2024/01/09 00:10:16;;;;;;;;;;;;;;;;;;5078303;28;19924;-72
2024/01/09 00:12:42;;;;;;;;;;;;;;;;;;5059217;28;20313;-72
2024/01/09 00:15:09;;;;;;;;;;;;;;;;;;5066109;28;20001;-72
2024/01/09 00:17:35;;;;;;;;;;;;;;;;;;5073836;28;19970;-72
2024/01/09 00:20:01;;;;;;;;;;;;;;;;;;5082534;28;19932;-72
2024/01/09 00:22:27;;;;;;;;;;;;;;;;;;5067407;28;19954;-72
2024/01/09 00:24:53;;;;;;;;;;;;;;;;;;5072481;28;20409;-72
2024/01/09 00:27:19;;;;;;;;;;;;;;;;;;5068128;28;19967;-72
2024/01/09 00:29:45;;;;;;;;;;;;;;;;;;5067672;28;19967;-72
2024/01/09 00:32:11;;;;;;;;;;;;;;;;;;5044372;28;20400;-73
2024/01/09 00:34:37;;;;;;;;;;;;;;;;;;5068731;28;19951;-72
2024/01/09 00:37:03;;;;;;;;;;;;;;;;;;5070293;28;20002;-72
2024/01/09 00:39:29;;;;;;;;;;;;;;;;;;5070301;28;19928;-72
2024/01/09 00:41:54;;;;;;;;;;;;;;;;;;5066424;28;19923;-72
2024/01/09 00:44:20;;;;;;;;;;;;;;;;;;5064904;28;19920;-72
2024/01/09 00:46:47;;;;;;;;;;;;;;;;;;5063150;28;20377;-72
2024/01/09 00:49:13;;;;;;;;;;;;;;;;;;5067066;28;19986;-73
2024/01/09 00:51:38;;;;;;;;;;;;;;;;;;5072708;28;19920;-73
2024/01/09 00:54:04;;;;;;;;;;;;;;;;;;5087354;28;19944;-72
2024/01/09 00:56:30;;;;;;;;;;;;;;;;;;5071902;28;20344;-72
2024/01/09 00:58:56;;;;;;;;;;;;;;;;;;5072832;28;19927;-71
2024/01/09 01:01:22;;;;;;;;;;;;;;;;;;5056369;28;19924;-72
2024/01/09 01:03:48;;;;;;;;;;;;;;;;;;5068189;28;20415;-73
2024/01/09 01:06:14;;;;;;;;;;;;;;;;;;5044920;28;20332;-72
2024/01/09 01:08:40;;;;;;;;;;;;;;;;;;5045332;28;20338;-73
2024/01/09 01:11:06;;;;;;;;;;;;;;;;;;5049498;28;19927;-72
2024/01/09 01:13:32;;;;;;;;;;;;;;;;;;5052228;28;19927;-73
2024/01/09 01:15:58;;;;;;;;;;;;;;;;;;5053404;28;19924;-72
2024/01/09 01:18:24;;;;;;;;;;;;;;;;;;5065126;28;19942;-73
2024/01/09 01:20:50;;;;;;;;;;;;;;;;;;5061387;28;19928;-72
2024/01/09 01:23:16;;;;;;;;;;;;;;;;;;5063165;28;19924;-73
2024/01/09 01:25:42;;;;;;;;;;;;;;;;;;5066900;28;20243;-72
2024/01/09 01:28:08;;;;;;;;;;;;;;;;;;5037015;28;19925;-72
2024/01/09 01:30:34;;;;;;;;;;;;;;;;;;5043011;28;19931;-72
2024/01/09 01:33:00;;;;;;;;;;;;;;;;;;5063104;28;20451;-73
2024/01/09 01:35:26;;;;;;;;;;;;;;;;;;5055281;28;19939;-72
2024/01/09 01:37:52;;;;;;;;;;;;;;;;;;5068185;28;19920;-72
2024/01/09 01:40:18;;;;;;;;;;;;;;;;;;5070178;28;19939;-72
2024/01/09 01:42:43;;;;;;;;;;;;;;;;;;5064034;28;20366;-73
2024/01/09 01:45:09;;;;;;;;;;;;;;;;;;5054159;28;19928;-73
2024/01/09 01:47:35;;;;;;;;;;;;;;;;;;5072368;28;19920;-73
2024/01/09 01:50:01;;;;;;;;;;;;;;;;;;5061540;28;19924;-73
2024/01/09 01:52:27;;;;;;;;;;;;;;;;;;5065261;28;19924;-73
2024/01/09 01:54:53;;;;;;;;;;;;;;;;;;5060898;28;19920;-73
2024/01/09 01:57:19;;;;;;;;;;;;;;;;;;5060509;28;19921;-73
2024/01/09 01:59:45;;;;;;;;;;;;;;;;;;5069383;28;19943;-73
2024/01/09 02:02:11;;;;;;;;;;;;;;;;;;5044248;28;19925;-73
2024/01/09 02:04:37;;;;;;;;;;;;;;;;;;5057114;28;20269;-73
2024/01/09 02:07:03;;;;;;;;;;;;;;;;;;5062423;28;19920;-73
2024/01/09 02:09:28;;;;;;;;;;;;;;;;;;5076805;28;20581;-73
2024/01/09 02:11:54;;;;;;;;;;;;;;;;;;5070875;28;19924;-73
2024/01/09 02:14:20;;;;;;;;;;;;;;;;;;5065171;28;20448;-73
2024/01/09 02:16:46;;;;;;;;;;;;;;;;;;5066359;28;19920;-73
2024/01/09 02:19:12;;;;;;;;;;;;;;;;;;5050864;28;19928;-73
2024/01/09 02:21:38;;;;;;;;;;;;;;;;;;5068418;28;19956;-73
2024/01/09 02:24:04;;;;;;;;;;;;;;;;;;5065396;28;19924;-73
2024/01/09 02:26:30;;;;;;;;;;;;;;;;;;5083178;28;19924;-72
2024/01/09 02:28:56;;;;;;;;;;;;;;;;;;5092491;28;20639;-72
2024/01/09 02:31:22;;;;;;;;;;;;;;;;;;5085099;28;19949;-73
2024/01/09 02:33:49;;;;;;;;;;;;;;;;;;5072279;28;19934;-73
2024/01/09 02:36:15;;;;;;;;;;;;;;;;;;5087032;28;19927;-73
2024/01/09 02:38:41;;;;;;;;;;;;;;;;;;5085114;28;19924;-73
2024/01/09 02:41:07;;;;;;;;;;;;;;;;;;5092133;28;19999;-73
2024/01/09 02:43:32;;;;;;;;;;;;;;;;;;5087422;28;20002;-73
2024/01/09 02:45:58;;;;;;;;;;;;;;;;;;5087650;28;19923;-73
2024/01/09 02:48:24;;;;;;;;;;;;;;;;;;5089700;28;19924;-73
2024/01/09 02:50:50;;;;;;;;;;;;;;;;;;5085686;28;19930;-73
2024/01/09 02:53:16;;;;;;;;;;;;;;;;;;5089731;28;19942;-73
2024/01/09 02:55:42;;;;;;;;;;;;;;;;;;5073378;28;19928;-73
2024/01/09 02:58:09;;;;;;;;;;;;;;;;;;5090779;28;19919;-74
2024/01/09 03:00:34;;;;;;;;;;;;;;;;;;5095616;28;20006;-74
2024/01/09 03:03:00;;;;;;;;;;;;;;;;;;5069530;28;20010;-73
2024/01/09 03:05:26;;;;;;;;;;;;;;;;;;5083315;28;19931;-72
2024/01/09 03:07:52;;;;;;;;;;;;;;;;;;5074444;28;20285;-73
2024/01/09 03:10:18;;;;;;;;;;;;;;;;;;5087352;28;19927;-73
2024/01/09 03:12:44;;;;;;;;;;;;;;;;;;5080779;28;19931;-73
2024/01/09 03:15:10;;;;;;;;;;;;;;;;;;5089885;28;20007;-73
2024/01/09 03:17:36;;;;;;;;;;;;;;;;;;5077415;28;20369;-72
2024/01/09 03:20:03;;;;;;;;;;;;;;;;;;5083795;28;19935;-73
2024/01/09 03:22:29;;;;;;;;;;;;;;;;;;5081990;28;19924;-73
2024/01/09 03:24:55;;;;;;;;;;;;;;;;;;5090184;28;19984;-73
2024/01/09 03:27:21;;;;;;;;;;;;;;;;;;5092973;28;19920;-73
2024/01/09 03:29:47;;;;;;;;;;;;;;;;;;5090526;28;19956;-73
2024/01/09 03:32:13;;;;;;;;;;;;;;;;;;5093336;28;20503;-73
2024/01/09 03:34:38;;;;;;;;;;;;;;;;;;5090137;28;19943;-73
2024/01/09 03:37:06;;;;;;;;;;;;;;;;;;5067252;28;19946;-73
2024/01/09 03:39:32;;;;;;;;;;;;;;;;;;5079564;28;19938;-73
2024/01/09 03:41:58;;;;;;;;;;;;;;;;;;5092096;28;19924;-73
2024/01/09 03:44:24;;;;;;;;;;;;;;;;;;5087720;28;20468;-73
2024/01/09 03:46:50;;;;;;;;;;;;;;;;;;5089060;28;19931;-74
2024/01/09 03:49:16;;;;;;;;;;;;;;;;;;5076146;28;19928;-73
2024/01/09 03:51:42;;;;;;;;;;;;;;;;;;5080802;28;19928;-73
2024/01/09 03:54:08;;;;;;;;;;;;;;;;;;5072677;28;19924;-74
2024/01/09 03:56:33;;;;;;;;;;;;;;;;;;5071128;28;19926;-73
2024/01/09 03:59:00;;;;;;;;;;;;;;;;;;5059096;28;19928;-73
2024/01/09 04:01:25;;;;;;;;;;;;;;;;;;5070919;28;19934;-73
2024/01/09 04:03:51;;;;;;;;;;;;;;;;;;5072167;28;19928;-73
2024/01/09 04:06:17;;;;;;;;;;;;;;;;;;5053045;28;19920;-73
2024/01/09 04:08:43;;;;;;;;;;;;;;;;;;5068556;28;19941;-73
2024/01/09 04:11:09;;;;;;;;;;;;;;;;;;5086562;28;19924;-73
2024/01/09 04:13:35;;;;;;;;;;;;;;;;;;5083000;28;20054;-73
2024/01/09 04:16:01;;;;;;;;;;;;;;;;;;5075202;28;19927;-73
2024/01/09 04:18:27;;;;;;;;;;;;;;;;;;5079757;28;19977;-73
2024/01/09 04:20:53;;;;;;;;;;;;;;;;;;5069247;28;19928;-73
2024/01/09 04:23:19;;;;;;;;;;;;;;;;;;5079344;28;20400;-73
2024/01/09 04:25:45;;;;;;;;;;;;;;;;;;5061830;28;19970;-73
2024/01/09 04:28:11;;;;;;;;;;;;;;;;;;5060785;28;19978;-73
2024/01/09 04:30:37;;;;;;;;;;;;;;;;;;5067387;28;20344;-73
2024/01/09 04:33:03;;;;;;;;;;;;;;;;;;5064377;28;19920;-73
2024/01/09 04:35:28;;;;;;;;;;;;;;;;;;5071571;28;20370;-73
2024/01/09 04:37:54;;;;;;;;;;;;;;;;;;5065737;28;19930;-73
2024/01/09 04:40:20;;;;;;;;;;;;;;;;;;5081830;28;20014;-73
2024/01/09 04:42:46;;;;;;;;;;;;;;;;;;5099174;23;19934;-64
2024/01/09 04:45:12;;;;;;;;;;;;;;;;;;5075448;28;20015;-65
2024/01/09 04:47:38;;;;;;;;;;;;;;;;;;5111930;27;19965;-65
2024/01/09 04:50:04;;;;;;;;;;;;;;;;;;5110363;27;19924;-66
2024/01/09 04:52:30;;;;;;;;;;;;;;;;;;5112506;28;19920;-66
2024/01/09 04:54:56;;;;;;;;;;;;;;;;;;5109703;28;20372;-65
2024/01/09 04:57:22;;;;;;;;;;;;;;;;;;5107865;28;20339;-65
2024/01/09 04:59:48;;;;;;;;;;;;;;;;;;5105911;27;19980;-66
2024/01/09 05:02:14;;;;;;;;;;;;;;;;;;5110728;28;19973;-66
2024/01/09 05:04:40;;;;;;;;;;;;;;;;;;5110193;28;19926;-65
2024/01/09 05:07:06;;;;;;;;;;;;;;;;;;5107467;28;20571;-65
2024/01/09 05:09:31;;;;;;;;;;;;;;;;;;5098616;28;19927;-65
2024/01/09 05:11:57;;;;;;;;;;;;;;;;;;5091861;28;19927;-66
2024/01/09 05:14:23;;;;;;;;;;;;;;;;;;5103275;28;19942;-66
2024/01/09 05:16:49;;;;;;;;;;;;;;;;;;5109087;28;20615;-67
2024/01/09 05:19:15;;;;;;;;;;;;;;;;;;5096689;28;19928;-66
2024/01/09 05:21:41;;;;;;;;;;;;;;;;;;5103635;28;19943;-66
2024/01/09 05:24:07;;;;;;;;;;;;;;;;;;5105571;28;19920;-66
2024/01/09 05:26:33;;;;;;;;;;;;;;;;;;5082214;28;19931;-66
2024/01/09 05:28:59;;;;;;;;;;;;;;;;;;5085216;28;19968;-66
2024/01/09 05:31:25;;;;;;;;;;;;;;;;;;5075713;28;19920;-66
2024/01/09 05:33:51;;;;;;;;;;;;;;;;;;5101091;28;19920;-66
2024/01/09 05:36:22;;;;;;;;;;;;;;;;;;5110546;28;19929;-66
2024/01/09 05:38:47;;;;;;;;;;;;;;;;;;5120145;28;20393;-67
2024/01/09 05:41:14;;;;;;;;;;;;;;;;;;5118786;28;19958;-66
2024/01/09 05:43:39;;;;;;;;;;;;;;;;;;5100647;28;19966;-65
2024/01/09 05:46:05;;;;;;;;;;;;;;;;;;5108713;28;20315;-63
2024/01/09 05:48:31;;;;;;;;;;;;;;;;;;5110352;28;20728;-64
2024/01/09 05:50:59;;;;;;;;;;;;;;;;;;5079219;28;20293;-62
2024/01/09 05:53:25;;;;;;;;;;;;;;;;;;5076277;28;19924;-62
2024/01/09 05:55:51;;;;;;;;;;;;;;;;;;5099457;28;19920;-62
2024/01/09 05:58:17;;;;;;;;;;;;;;;;;;5106013;28;19976;-63
2024/01/09 06:00:43;;;;;;;;;;;;;;;;;;5113722;27;20073;-63
2024/01/09 06:03:09;;;;;;;;;;;;;;;;;;5098669;28;19930;-62
2024/01/09 06:05:34;;;;;;;;;;;;;;;;;;5125454;27;19930;-63
2024/01/09 06:08:00;;;;;;;;;;;;;;;;;;5115834;27;20002;-63
2024/01/09 06:10:26;;;;;;;;;;;;;;;;;;5101369;27;20077;-63
2024/01/09 06:12:52;;;;;;;;;;;;;;;;;;5115398;27;20014;-63
2024/01/09 06:15:18;;;;;;;;;;;;;;;;;;5105577;28;19977;-64
2024/01/09 06:17:44;;;;;;;;;;;;;;;;;;5079857;28;20441;-64
2024/01/09 06:20:10;;;;;;;;;;;;;;;;;;5110082;27;19920;-63
2024/01/09 06:22:36;;;;;;;;;;;;;;;;;;5079137;28;19928;-63
2024/01/09 06:25:02;;;;;;;;;;;;;;;;;;5094904;27;19971;-63
2024/01/09 06:27:28;;;;;;;;;;;;;;;;;;5121875;27;20568;-63
2024/01/09 06:29:54;;;;;;;;;;;;;;;;;;5101853;27;19919;-63
2024/01/09 06:32:19;;;;;;;;;;;;;;;;;;5113535;27;20367;-62
2024/01/09 06:34:45;;;;;;;;;;;;;;;;;;5087243;28;19966;-63
2024/01/09 06:37:11;;;;;;;;;;;;;;;;;;5071015;28;19967;-63
2024/01/09 06:39:37;;;;;;;;;;;;;;;;;;5122473;27;19972;-63
2024/01/09 06:42:03;;;;;;;;;;;;;;;;;;5100163;28;19935;-62
2024/01/09 06:44:29;;;;;;;;;;;;;;;;;;5076774;28;19920;-62
2024/01/09 06:46:55;;;;;;;;;;;;;;;;;;5108373;28;19924;-63
2024/01/09 06:49:21;;;;;;;;;;;;;;;;;;5108476;27;20320;-62
2024/01/09 06:51:47;;;;;;;;;;;;;;;;;;5111178;28;20026;-63
2024/01/09 06:54:13;;;;;;;;;;;;;;;;;;5077192;28;19928;-63
2024/01/09 06:56:39;;;;;;;;;;;;;;;;;;5088700;28;20308;-63
2024/01/09 06:59:04;;;;;;;;;;;;;;;;;;5110700;28;19978;-63
2024/01/09 07:01:35;;;;;;;;;;;;;;;;;;5095689;27;20396;-63
2024/01/09 07:04:01;;;;;;;;;;;;;;;;;;5113637;27;20419;-63
2024/01/09 07:06:26;;;;;;;;;;;;;;;;;;5107285;28;19927;-62
2024/01/09 07:08:52;;;;;;;;;;;;;;;;;;5115811;27;19934;-63
2024/01/09 07:11:18;;;;;;;;;;;;;;;;;;5090953;28;19969;-63
2024/01/09 07:13:44;;;;;;;;;;;;;;;;;;5117592;27;20503;-63
2024/01/09 07:16:10;;;;;;;;;;;;;;;;;;5101975;28;19924;-63
2024/01/09 07:18:36;;;;;;;;;;;;;;;;;;5113194;28;20393;-63
2024/01/09 07:21:02;;;;;;;;;;;;;;;;;;5113078;28;20014;-64
2024/01/09 07:23:28;;;;;;;;;;;;;;;;;;5091876;28;19928;-63
2024/01/09 07:25:54;;;;;;;;;;;;;;;;;;5094720;28;20385;-63
2024/01/09 07:28:20;;;;;;;;;;;;;;;;;;5133260;27;19926;-63
2024/01/09 07:30:47;;;;;;;;;;;;;;;;;;5115940;27;19924;-63
2024/01/09 07:33:13;;;;;;;;;;;;;;;;;;5113373;28;19928;-63
2024/01/09 07:35:39;;;;;;;;;;;;;;;;;;5096634;28;19927;-64
2024/01/09 07:38:05;;;;;;;;;;;;;;;;;;5091892;28;20490;-63
2024/01/09 07:40:31;;;;;;;;;;;;;;;;;;5110988;28;19924;-62
2024/01/09 07:42:58;;;;;;;;;;;;;;;;;;5119258;27;19941;-62
2024/01/09 07:45:28;;;;;;;;;;;;;;;;;;5093954;28;19920;-62
2024/01/09 07:47:54;;;;;;;;;;;;;;;;;;5118785;27;20262;-63
2024/01/09 07:50:20;;;;;;;;;;;;;;;;;;5116954;27;20014;-62
2024/01/09 07:52:46;;;;;;;;;;;;;;;;;;5112860;27;19923;-63
2024/01/09 07:55:12;;;;;;;;;;;;;;;;;;5104913;28;19931;-63
2024/01/09 07:57:38;;;;;;;;;;;;;;;;;;5104650;28;19950;-62
2024/01/09 08:00:04;;;;;;;;;;;;;;;;;;5091657;28;19920;-62
2024/01/09 08:02:30;;;;;;;;;;;;;;;;;;5112440;28;20033;-63
2024/01/09 08:04:56;;;;;;;;;;;;;;;;;;5112525;28;20038;-62
2024/01/09 08:07:22;;;;;;;;;;;;;;;;;;5117414;27;20412;-62
2024/01/09 08:09:48;;;;;;;;;;;;;;;;;;5116316;27;19954;-63
2024/01/09 08:12:14;;;;;;;;;;;;;;;;;;5111904;27;19962;-63
2024/01/09 08:14:39;;;;;;;;;;;;;;;;;;5115444;27;19951;-63
2024/01/09 08:17:05;;;;;;;;;;;;;;;;;;5087951;28;19967;-62
2024/01/09 08:19:32;;;;;;;;;;;;;;;;;;5112477;27;19920;-62
2024/01/09 08:21:58;;;;;;;;;;;;;;;;;;5104761;27;20323;-62
2024/01/09 08:24:24;;;;;;;;;;;;;;;;;;5101807;28;19919;-62
2024/01/09 08:26:50;;;;;;;;;;;;;;;;;;5108222;27;19928;-63
2024/01/09 08:29:16;;;;;;;;;;;;;;;;;;5110604;28;20303;-63
2024/01/09 08:31:42;;;;;;;;;;;;;;;;;;5088838;27;19920;-62
2024/01/09 08:34:08;;;;;;;;;;;;;;;;;;5121375;27;19973;-62
2024/01/09 08:36:34;;;;;;;;;;;;;;;;;;5094473;27;19923;-63
2024/01/09 08:39:00;;;;;;;;;;;;;;;;;;5108469;27;19981;-63
2024/01/09 08:41:25;;;;;;;;;;;;;;;;;;5095461;27;20315;-62
2024/01/09 08:43:51;;;;;;;;;;;;;;;;;;5095207;27;19920;-62
2024/01/09 08:46:17;;;;;;;;;;;;;;;;;;5111387;27;19977;-63
2024/01/09 08:48:43;;;;;;;;;;;;;;;;;;5086899;28;19924;-62
2024/01/09 08:51:09;;;;;;;;;;;;;;;;;;5111927;27;20262;-62
2024/01/09 08:53:35;;;;;;;;;;;;;;;;;;5110006;28;19943;-62
2024/01/09 08:56:01;;;;;;;;;;;;;;;;;;5109463;27;20388;-63
2024/01/09 08:58:27;;;;;;;;;;;;;;;;;;5113111;28;20026;-62
2024/01/09 09:00:53;;;;;;;;;;;;;;;;;;5109614;28;20081;-62
2024/01/09 09:03:19;;;;;;;;;;;;;;;;;;5096040;28;20015;-63
2024/01/09 09:05:45;;;;;;;;;;;;;;;;;;5115413;27;20014;-63
2024/01/09 09:08:11;;;;;;;;;;;;;;;;;;5118494;27;20383;-62
2024/01/09 09:10:37;;;;;;;;;;;;;;;;;;5102119;28;19920;-62
2024/01/09 09:13:04;;;;;;;;;;;;;;;;;;5102184;28;19930;-62
2024/01/09 09:15:30;;;;;;;;;;;;;;;;;;5094788;28;20273;-62
2024/01/09 09:17:56;;;;;;;;;;;;;;;;;;5108770;28;20281;-62
2024/01/09 09:20:22;;;;;;;;;;;;;;;;;;5106221;28;19948;-63
2024/01/09 09:22:48;;;;;;;;;;;;;;;;;;5095842;28;19924;-62
2024/01/09 09:25:14;;;;;;;;;;;;;;;;;;5080195;28;19921;-63
2024/01/09 09:27:45;;;;;;;;;;;;;;;;;;5095388;28;19984;-62
2024/01/09 09:30:11;;;;;;;;;;;;;;;;;;5110533;28;19927;-63
2024/01/09 09:32:37;;;;;;;;;;;;;;;;;;5107444;28;19920;-62
2024/01/09 09:35:03;;;;;;;;;;;;;;;;;;5085287;28;19926;-63
2024/01/09 09:37:29;;;;;;;;;;;;;;;;;;5083052;28;19924;-61
2024/01/09 09:39:55;;;;;;;;;;;;;;;;;;5079270;28;19930;-61
2024/01/09 09:42:22;;;;;;;;;;;;;;;;;;5115186;28;19930;-63
2024/01/09 09:44:48;;;;;;;;;;;;;;;;;;5093088;28;20031;-62
2024/01/09 09:47:15;;;;;;;;;;;;;;;;;;5109843;28;20021;-62
2024/01/09 09:49:41;;;;;;;;;;;;;;;;;;5101533;27;19920;-62
2024/01/09 09:52:07;;;;;;;;;;;;;;;;;;5127665;27;20452;-61
2024/01/09 09:54:33;;;;;;;;;;;;;;;;;;5115822;27;19934;-61
2024/01/09 09:56:59;;;;;;;;;;;;;;;;;;5097739;28;20265;-62
2024/01/09 09:59:24;;;;;;;;;;;;;;;;;;5111902;27;20360;-62
2024/01/09 10:01:50;;;;;;;;;;;;;;;;;;5110665;27;19924;-63
2024/01/09 10:04:16;;;;;;;;;;;;;;;;;;5119629;27;20015;-61
2024/01/09 10:06:42;;;;;;;;;;;;;;;;;;5100469;28;20022;-61
2024/01/09 10:09:10;;;;;;;;;;;;;;;;;;5108657;27;20002;-61
2024/01/09 10:11:35;;;;;;;;;;;;;;;;;;5121104;27;20010;-61
2024/01/09 10:14:01;;;;;;;;;;;;;;;;;;5117987;27;20011;-62
2024/01/09 10:16:27;;;;;;;;;;;;;;;;;;5100504;27;20303;-62
2024/01/09 10:18:54;;;;;;;;;;;;;;;;;;5087080;28;19927;-61
2024/01/09 10:21:20;;;;;;;;;;;;;;;;;;5118597;27;19920;-61
2024/01/09 10:23:46;;;;;;;;;;;;;;;;;;5120158;27;19924;-61
2024/01/09 10:26:12;;;;;;;;;;;;;;;;;;5097617;27;19935;-60
2024/01/09 10:28:38;;;;;;;;;;;;;;;;;;5121288;27;19920;-61
2024/01/09 10:31:04;;;;;;;;;;;;;;;;;;5118907;27;20338;-61
2024/01/09 10:33:30;;;;;;;;;;;;;;;;;;5125304;27;19928;-60
2024/01/09 10:35:56;;;;;;;;;;;;;;;;;;5118229;27;19972;-61
2024/01/09 10:38:22;;;;;;;;;;;;;;;;;;5119182;27;19927;-62
2024/01/09 10:40:49;;;;;;;;;;;;;;;;;;5119803;27;20483;-61
2024/01/09 10:43:15;;;;;;;;;;;;;;;;;;5090358;27;19955;-63
2024/01/09 10:45:41;;;;;;;;;;;;;;;;;;5114558;27;19950;-64
2024/01/09 10:48:07;;;;;;;;;;;;;;;;;;5102654;27;20546;-63
2024/01/09 10:50:33;;;;;;;;;;;;;;;;;;5117932;27;19923;-64
2024/01/09 10:52:59;;;;;;;;;;;;;;;;;;5117305;27;19926;-64
2024/01/09 10:55:25;;;;;;;;;;;;;;;;;;5122963;27;20002;-63
2024/01/09 10:57:51;;;;;;;;;;;;;;;;;;5105812;28;20311;-63
2024/01/09 11:00:17;;;;;;;;;;;;;;;;;;5126599;27;20381;-64
2024/01/09 11:02:43;;;;;;;;;;;;;;;;;;5108352;27;19951;-65
2024/01/09 11:05:10;;;;;;;;;;;;;;;;;;5129748;27;19924;-65
2024/01/09 11:07:36;;;;;;;;;;;;;;;;;;5113047;27;19928;-65
2024/01/09 11:10:03;;;;;;;;;;;;;;;;;;5125284;27;20014;-65
2024/01/09 11:12:30;;;;;;;;;;;;;;;;;;5099230;28;19974;-64
2024/01/09 11:14:55;;;;;;;;;;;;;;;;;;5089177;28;19924;-65
2024/01/09 11:17:21;;;;;;;;;;;;;;;;;;5122720;27;19965;-65
2024/01/09 11:19:47;;;;;;;;;;;;;;;;;;5109848;27;19924;-66
2024/01/09 11:22:13;;;;;;;;;;;;;;;;;;5113934;27;19924;-66
2024/01/09 11:24:39;;;;;;;;;;;;;;;;;;5113127;27;19924;-66
2024/01/09 11:27:05;;;;;;;;;;;;;;;;;;5109041;27;20415;-66
2024/01/09 11:29:31;;;;;;;;;;;;;;;;;;5107455;27;19964;-66
2024/01/09 11:31:57;;;;;;;;;;;;;;;;;;5097478;28;19919;-66
2024/01/09 11:34:23;;;;;;;;;;;;;;;;;;5117931;27;19929;-65
2024/01/09 11:36:49;;;;;;;;;;;;;;;;;;5094637;28;20457;-66
2024/01/09 11:39:14;;;;;;;;;;;;;;;;;;5114342;27;19923;-66
2024/01/09 11:41:40;;;;;;;;;;;;;;;;;;5106869;28;19924;-66
2024/01/09 11:44:06;;;;;;;;;;;;;;;;;;5078007;28;19931;-65
2024/01/09 11:46:32;;;;;;;;;;;;;;;;;;5094545;28;20326;-66
2024/01/09 11:48:58;;;;;;;;;;;;;;;;;;5110866;28;20376;-66
2024/01/09 11:51:24;;;;;;;;;;;;;;;;;;5094970;28;19926;-65
2024/01/09 11:53:50;;;;;;;;;;;;;;;;;;5113847;27;19923;-65
2024/01/09 11:56:16;;;;;;;;;;;;;;;;;;5090827;28;20361;-66
2024/01/09 11:58:42;;;;;;;;;;;;;;;;;;5096495;28;19967;-66
2024/01/09 12:01:08;;;;;;;;;;;;;;;;;;5110441;28;20337;-66
2024/01/09 12:03:34;;;;;;;;;;;;;;;;;;5124734;27;19924;-66
2024/01/09 12:06:00;;;;;;;;;;;;;;;;;;5115763;27;20431;-65
2024/01/09 12:08:26;;;;;;;;;;;;;;;;;;5110429;27;19919;-66
2024/01/09 12:10:52;;;;;;;;;;;;;;;;;;5113684;27;19931;-66
2024/01/09 12:13:18;;;;;;;;;;;;;;;;;;5106059;28;19963;-66
2024/01/09 12:15:44;;;;;;;;;;;;;;;;;;5076332;28;19978;-66
2024/01/09 12:18:10;;;;;;;;;;;;;;;;;;5111527;27;19924;-66
2024/01/09 12:20:36;;;;;;;;;;;;;;;;;;5121594;27;19969;-65
2024/01/09 12:23:02;;;;;;;;;;;;;;;;;;5127984;27;20014;-65
2024/01/09 12:25:27;;;;;;;;;;;;;;;;;;5118684;27;19994;-65
2024/01/09 12:27:54;;;;;;;;;;;;;;;;;;5107804;27;19981;-65
2024/01/09 12:30:19;;;;;;;;;;;;;;;;;;5109779;28;19923;-66
2024/01/09 12:32:45;;;;;;;;;;;;;;;;;;5110364;27;19926;-66
2024/01/09 12:35:11;;;;;;;;;;;;;;;;;;5124658;27;19926;-66
2024/01/09 12:37:37;;;;;;;;;;;;;;;;;;5092295;28;20379;-66
2024/01/09 12:40:09;;;;;;;;;;;;;;;;;;5111114;28;20018;-66
2024/01/09 12:42:35;;;;;;;;;;;;;;;;;;5107980;27;20010;-66
2024/01/09 12:45:01;;;;;;;;;;;;;;;;;;5126656;27;20325;-66
2024/01/09 12:47:27;;;;;;;;;;;;;;;;;;5094702;27;19923;-66
2024/01/09 12:49:53;;;;;;;;;;;;;;;;;;5112801;27;20400;-66
2024/01/09 12:52:20;;;;;;;;;;;;;;;;;;5109986;27;19920;-67
2024/01/09 12:54:47;;;;;;;;;;;;;;;;;;5098123;27;20013;-67
2024/01/09 12:57:13;;;;;;;;;;;;;;;;;;5092421;27;19935;-66
2024/01/09 12:59:39;;;;;;;;;;;;;;;;;;5104780;28;19983;-67
2024/01/09 13:02:05;;;;;;;;;;;;;;;;;;5109657;28;19923;-67
2024/01/09 13:04:31;;;;;;;;;;;;;;;;;;5112302;27;19927;-67
2024/01/09 13:06:58;;;;;;;;;;;;;;;;;;5091940;28;19958;-66
2024/01/09 13:09:23;;;;;;;;;;;;;;;;;;5110761;28;19927;-66
2024/01/09 13:11:49;;;;;;;;;;;;;;;;;;5094385;28;19919;-67
2024/01/09 13:14:15;;;;;;;;;;;;;;;;;;5093056;28;20327;-67
2024/01/09 13:16:41;;;;;;;;;;;;;;;;;;5112225;28;19963;-67
2024/01/09 13:19:09;;;;;;;;;;;;;;;;;;5110513;28;20019;-67
2024/01/09 13:21:36;;;;;;;;;;;;;;;;;;5112676;28;19924;-67
2024/01/09 13:24:02;;;;;;;;;;;;;;;;;;5112601;28;20540;-67
2024/01/09 13:26:28;;;;;;;;;;;;;;;;;;5090572;28;19927;-67
2024/01/09 13:28:54;;;;;;;;;;;;;;;;;;5089745;28;19924;-67
2024/01/09 13:31:19;;;;;;;;;;;;;;;;;;5111118;28;19920;-68
2024/01/09 13:33:45;;;;;;;;;;;;;;;;;;5112676;28;19919;-67
2024/01/09 13:36:11;;;;;;;;;;;;;;;;;;5091575;28;20730;-67
2024/01/09 13:38:37;;;;;;;;;;;;;;;;;;5099970;28;20010;-68
2024/01/09 13:41:04;;;;;;;;;;;;;;;;;;5092418;28;20015;-68
2024/01/09 13:43:30;;;;;;;;;;;;;;;;;;5108101;28;19935;-67
2024/01/09 13:45:58;;;;;;;;;;;;;;;;;;5104345;28;19926;-68
2024/01/09 13:48:24;;;;;;;;;;;;;;;;;;5106244;28;19924;-67
2024/01/09 13:50:50;;;;;;;;;;;;;;;;;;5093293;28;19919;-68
2024/01/09 13:53:16;;;;;;;;;;;;;;;;;;5110511;28;19920;-69
2024/01/09 13:55:42;;;;;;;;;;;;;;;;;;5094022;28;19920;-68
2024/01/09 13:58:07;;;;;;;;;;;;;;;;;;5090392;28;20398;-67
2024/01/09 14:00:33;;;;;;;;;;;;;;;;;;5102768;28;20007;-68
2024/01/09 14:03:00;;;;;;;;;;;;;;;;;;5085358;28;19998;-68
2024/01/09 14:05:28;;;;;;;;;;;;;;;;;;5105592;28;19949;-69
2024/01/09 14:07:54;;;;;;;;;;;;;;;;;;5114447;28;20001;-68
2024/01/09 14:10:21;;;;;;;;;;;;;;;;;;5108342;28;19998;-69
2024/01/09 14:12:47;;;;;;;;;;;;;;;;;;5086349;28;19978;-68
2024/01/09 14:15:14;;;;;;;;;;;;;;;;;;5114208;28;20311;-69
2024/01/09 14:17:43;;;;;;;;;;;;;;;;;;5091854;28;19977;-69
2024/01/09 14:20:08;;;;;;;;;;;;;;;;;;5110821;27;19924;-68
2024/01/09 14:22:34;;;;;;;;;;;;;;;;;;5098942;27;19923;-68
2024/01/09 14:25:00;;;;;;;;;;;;;;;;;;5108073;27;19920;-68
2024/01/09 14:27:26;;;;;;;;;;;;;;;;;;5115912;27;19927;-69
2024/01/09 14:29:52;;;;;;;;;;;;;;;;;;5109663;27;19931;-69
2024/01/09 14:32:18;;;;;;;;;;;;;;;;;;5097399;28;19976;-67
2024/01/09 14:34:44;;;;;;;;;;;;;;;;;;5090954;28;20348;-68
2024/01/09 14:37:10;;;;;;;;;;;;;;;;;;5104149;27;19924;-68
2024/01/09 14:39:36;;;;;;;;;;;;;;;;;;5091060;28;19932;-68
2024/01/09 14:42:02;;;;;;;;;;;;;;;;;;5077877;28;19932;-69
2024/01/09 14:44:28;;;;;;;;;;;;;;;;;;5070410;28;19939;-69
2024/01/09 14:46:57;;;;;;;;;;;;;;;;;;5072268;28;20418;-68
2024/01/09 14:49:23;;;;;;;;;;;;;;;;;;5071515;28;19920;-67
2024/01/09 14:51:49;;;;;;;;;;;;;;;;;;5090209;28;20019;-68
2024/01/09 14:54:21;;;;;;;;;;;;;;;;;;5088189;28;19924;-67
2024/01/09 14:56:47;;;;;;;;;;;;;;;;;;5070838;28;20459;-68
2024/01/09 14:59:14;;;;;;;;;;;;;;;;;;5088837;28;19963;-68
2024/01/09 15:01:40;;;;;;;;;;;;;;;;;;5092799;28;19922;-68
2024/01/09 15:04:06;;;;;;;;;;;;;;;;;;5095011;28;19926;-68
2024/01/09 15:06:32;;;;;;;;;;;;;;;;;;5078171;28;19935;-69
2024/01/09 15:08:58;;;;;;;;;;;;;;;;;;5091372;28;22382;-68
2024/01/09 15:11:24;;;;;;;;;;;;;;;;;;5073310;28;19927;-68
2024/01/09 15:13:50;;;;;;;;;;;;;;;;;;5078610;28;19931;-68
2024/01/09 15:16:16;;;;;;;;;;;;;;;;;;5086627;28;19924;-68
2024/01/09 15:18:42;;;;;;;;;;;;;;;;;;5067916;28;19928;-68
2024/01/09 15:21:08;;;;;;;;;;;;;;;;;;5093735;28;19978;-67
2024/01/09 15:23:33;;;;;;;;;;;;;;;;;;5055025;28;19920;-68
2024/01/09 15:25:59;;;;;;;;;;;;;;;;;;5068020;28;19934;-68
2024/01/09 15:28:25;;;;;;;;;;;;;;;;;;5047905;28;19924;-67
2024/01/09 15:30:51;;;;;;;;;;;;;;;;;;5086305;28;20358;-67
2024/01/09 15:33:17;;;;;;;;;;;;;;;;;;5069129;28;20412;-68
2024/01/09 15:35:44;;;;;;;;;;;;;;;;;;5071821;28;19972;-68
2024/01/09 15:38:10;;;;;;;;;;;;;;;;;;5073151;28;19975;-66
2024/01/09 15:40:37;;;;;;;;;;;;;;;;;;5070413;28;19924;-68
2024/01/09 15:43:03;;;;;;;;;;;;;;;;;;5092880;28;19928;-68
2024/01/09 15:45:31;;;;;;;;;;;;;;;;;;5089714;28;19955;-68
2024/01/09 15:47:57;;;;;;;;;;;;;;;;;;5068291;28;19924;-67
2024/01/09 15:50:23;;;;;;;;;;;;;;;;;;5055924;28;19928;-67
2024/01/09 15:52:48;;;;;;;;;;;;;;;;;;5090376;28;20387;-68
2024/01/09 15:55:14;;;;;;;;;;;;;;;;;;5087946;28;20015;-67
2024/01/09 15:57:42;;;;;;;;;;;;;;;;;;5087731;28;20010;-67
2024/01/09 16:00:10;;;;;;;;;;;;;;;;;;5070650;28;19923;-67
2024/01/09 16:02:38;;;;;;;;;;;;;;;;;;5067012;28;19924;-67
2024/01/09 16:05:06;;;;;;;;;;;;;;;;;;5088414;28;20289;-67
2024/01/09 16:07:31;;;;;;;;;;;;;;;;;;5087363;28;19923;-66
2024/01/09 16:09:58;;;;;;;;;;;;;;;;;;5084931;28;19935;-66
2024/01/09 16:12:24;;;;;;;;;;;;;;;;;;5151528;22;19927;-72
2024/01/09 16:14:49;;;;;;;;;;;;;;;;;;5106896;27;19928;-72
2024/01/09 16:17:15;;;;;;;;;;;;;;;;;;5105579;27;19976;-72
2024/01/09 16:19:41;;;;;;;;;;;;;;;;;;5099317;27;20398;-72
2024/01/09 16:22:07;;;;;;;;;;;;;;;;;;5104728;27;19924;-73
2024/01/09 16:24:33;;;;;;;;;;;;;;;;;;5102583;27;19928;-73
2024/01/09 16:26:59;;;;;;;;;;;;;;;;;;5099238;27;19930;-73
2024/01/09 16:29:25;;;;;;;;;;;;;;;;;;5100571;27;20474;-73
2024/01/09 16:31:52;;;;;;;;;;;;;;;;;;5106698;27;19923;-73
2024/01/09 16:34:17;;;;;;;;;;;;;;;;;;5088722;27;19919;-73
2024/01/09 16:36:43;;;;;;;;;;;;;;;;;;5110834;27;19992;-74